createdAt,value
2023-02-28T00:00:34.678Z,102520.22
2023-02-28T00:03:05.256Z,102526.09
2023-02-28T00:05:38.140Z,102532.22
2023-02-28T00:08:08.656Z,102517.03
2023-02-28T00:10:38.908Z,102530.34
2023-02-28T00:13:10.473Z,102525.13
2023-02-28T00:15:40.621Z,102521.69
2023-02-28T00:18:10.717Z,102519.66
2023-02-28T00:20:43.421Z,102503.47
2023-02-28T00:23:15.476Z,102503.06
2023-02-28T00:25:45.596Z,102493.72
2023-02-28T00:28:16.286Z,102520.03
2023-02-28T00:30:46.684Z,102518.13
2023-02-28T00:33:17.287Z,102519.50
2023-02-28T00:35:50.202Z,102511.59
2023-02-28T00:38:21.117Z,102514.50
2023-02-28T00:40:51.297Z,102512.75
2023-02-28T00:43:21.392Z,102515.97
2023-02-28T00:45:51.576Z,102504.50
2023-02-28T00:48:22.017Z,102509.16
2023-02-28T00:50:55.798Z,102510.06
2023-02-28T00:53:25.910Z,102510.28
2023-02-28T00:55:56.665Z,102517.75
2023-02-28T00:58:26.656Z,102519.75
2023-02-28T01:00:57.402Z,102515.63
2023-02-28T01:03:27.618Z,102512.41
2023-02-28T01:06:00.758Z,102513.72
2023-02-28T01:08:31.364Z,102524.28
2023-02-28T01:11:01.564Z,102514.25
2023-02-28T01:13:31.595Z,102506.41
2023-02-28T01:16:01.882Z,102515.25
2023-02-28T01:18:32.544Z,102514.19
2023-02-28T01:21:08.039Z,102525.16
2023-02-28T01:23:38.202Z,102516.84
2023-02-28T01:26:09.754Z,102514.28
2023-02-28T01:28:43.563Z,102518.56
2023-02-28T01:31:14.427Z,102523.53
2023-02-28T01:33:45.304Z,102527.50
2023-02-28T01:36:20.092Z,102516.84
2023-02-28T01:38:50.767Z,102520.50
2023-02-28T01:41:27.747Z,102523.44
2023-02-28T01:44:06.498Z,102525.69
2023-02-28T01:46:38.671Z,102518.41
2023-02-28T01:49:13.507Z,102515.94
2023-02-28T01:51:51.944Z,102521.59
2023-02-28T01:54:26.453Z,102513.16
2023-02-28T01:57:00.969Z,102522.84
2023-02-28T01:59:37.139Z,102521.91
2023-02-28T02:02:07.617Z,102518.75
2023-02-28T02:04:44.223Z,102519.19
2023-02-28T02:07:18.232Z,102513.41
2023-02-28T02:09:48.862Z,102517.22
2023-02-28T02:12:35.196Z,102512.56
2023-02-28T02:15:12.344Z,102512.91
2023-02-28T02:17:46.936Z,102504.66
2023-02-28T02:20:45.329Z,102506.31
2023-02-28T02:23:34.300Z,102504.72
2023-02-28T02:26:22.603Z,102509.31
2023-02-28T02:29:32.173Z,102509.91
2023-02-28T02:32:33.942Z,102504.88
2023-02-28T02:35:16.131Z,102500.38
2023-02-28T02:37:54.571Z,102492.75
2023-02-28T02:40:28.210Z,102501.34
2023-02-28T02:43:04.155Z,102504.31
2023-02-28T02:45:39.730Z,102509.41
2023-02-28T02:48:14.333Z,102509.59
2023-02-28T02:50:49.267Z,102506.50
2023-02-28T02:53:25.228Z,102518.09
2023-02-28T02:55:57.497Z,102505.75
2023-02-28T02:58:32.825Z,102517.47
2023-02-28T03:01:05.989Z,102516.81
2023-02-28T03:03:37.220Z,102519.19
2023-02-28T03:06:11.234Z,102513.88
2023-02-28T03:08:42.151Z,102512.22
2023-02-28T03:11:19.304Z,102502.88
2023-02-28T03:13:58.509Z,102499.91
2023-02-28T03:16:54.156Z,102498.41
2023-02-28T03:19:31.012Z,102506.50
2023-02-28T03:22:16.665Z,102506.63
2023-02-28T03:24:53.597Z,102507.75
2023-02-28T03:27:30.204Z,102500.03
2023-02-28T03:30:05.240Z,102504.41
2023-02-28T03:32:40.502Z,102503.41
2023-02-28T03:35:15.305Z,102498.63
2023-02-28T03:37:50.364Z,102494.97
2023-02-28T03:40:24.093Z,102504.56
2023-02-28T03:42:58.111Z,102503.25
2023-02-28T03:45:31.590Z,102505.72
2023-02-28T03:48:06.694Z,102483.63
2023-02-28T03:50:42.096Z,102501.44
2023-02-28T03:53:20.690Z,102497.19
2023-02-28T03:55:54.362Z,102503.72
2023-02-28T03:58:31.103Z,102488.34
2023-02-28T04:01:09.691Z,102507.69
2023-02-28T04:03:40.829Z,102502.75
2023-02-28T04:06:17.019Z,102507.69
2023-02-28T04:08:49.955Z,102501.44
2023-02-28T04:11:26.258Z,102504.41
2023-02-28T04:13:56.628Z,102506.50
2023-02-28T04:16:35.101Z,102506.50
2023-02-28T04:19:06.948Z,102505.19
2023-02-28T04:21:38.595Z,102508.28
2023-02-28T04:24:15.444Z,102512.53
2023-02-28T04:26:47.451Z,102507.53
2023-02-28T04:29:22.188Z,102511.84
2023-02-28T04:31:52.449Z,102511.47
2023-02-28T04:34:22.496Z,102514.09
2023-02-28T04:37:10.355Z,102513.34
2023-02-28T04:39:45.971Z,102516.34
2023-02-28T04:42:18.692Z,102518.31
2023-02-28T04:44:48.857Z,102508.56
2023-02-28T04:47:19.179Z,102512.72
2023-02-28T04:49:49.654Z,102516.88
2023-02-28T04:52:19.653Z,102484.84
2023-02-28T04:54:52.663Z,102518.22
2023-02-28T04:57:22.599Z,102524.03
2023-02-28T04:59:52.576Z,102523.28
2023-02-28T05:02:22.760Z,102524.81
2023-02-28T05:04:52.987Z,102521.06
2023-02-28T05:07:23.233Z,102523.78
2023-02-28T05:09:56.110Z,102521.81
2023-02-28T05:12:26.114Z,102518.97
2023-02-28T05:14:56.215Z,102519.78
2023-02-28T05:17:26.305Z,102506.41
2023-02-28T05:20:06.507Z,102523.00
2023-02-28T05:22:44.076Z,102523.91
2023-02-28T05:25:24.989Z,102478.06
2023-02-28T05:27:55.016Z,102506.13
2023-02-28T05:30:25.212Z,102517.44
2023-02-28T05:32:55.930Z,102487.56
2023-02-28T05:35:26.121Z,102521.44
2023-02-28T05:37:56.379Z,102522.13
2023-02-28T05:40:29.100Z,102531.59
2023-02-28T05:42:59.110Z,102524.47
2023-02-28T05:45:29.586Z,102539.41
2023-02-28T05:48:00.189Z,102534.47
2023-02-28T05:50:30.405Z,102536.63
2023-02-28T05:53:00.351Z,102510.94
2023-02-28T05:55:33.238Z,102546.00
2023-02-28T05:58:03.694Z,102544.44
2023-02-28T06:00:34.017Z,102548.09
2023-02-28T06:03:04.210Z,102543.38
2023-02-28T06:05:34.873Z,102541.06
2023-02-28T06:08:04.834Z,102534.13
2023-02-28T06:10:37.716Z,102543.25
2023-02-28T06:13:08.719Z,102540.13
2023-02-28T06:15:38.850Z,102539.47
2023-02-28T06:18:09.331Z,102545.84
2023-02-28T06:20:39.292Z,102542.97
2023-02-28T06:23:09.635Z,102532.84
2023-02-28T06:25:42.297Z,102549.97
2023-02-28T06:28:12.301Z,102525.28
2023-02-28T06:30:44.468Z,102562.06
2023-02-28T06:33:15.530Z,102557.50
2023-02-28T06:35:47.898Z,102564.66
2023-02-28T06:38:19.200Z,102566.47
2023-02-28T06:40:57.731Z,102574.00
2023-02-28T06:43:29.731Z,102565.00
2023-02-28T06:46:01.004Z,102573.06
2023-02-28T06:48:31.539Z,102572.25
2023-02-28T06:51:09.572Z,102537.94
2023-02-28T06:53:39.935Z,102576.66
2023-02-28T06:56:14.796Z,102583.28
2023-02-28T06:58:45.512Z,102585.38
2023-02-28T07:01:17.449Z,102585.75
2023-02-28T07:03:47.693Z,102567.50
2023-02-28T07:06:19.043Z,102578.69
2023-02-28T07:08:49.263Z,102573.09
2023-02-28T07:11:23.562Z,102590.13
2023-02-28T07:13:53.496Z,102593.38
2023-02-28T07:16:24.545Z,102593.53
2023-02-28T07:18:57.008Z,102594.84
2023-02-28T07:21:27.323Z,102591.69
2023-02-28T07:23:57.720Z,102589.00
2023-02-28T07:26:30.792Z,102596.69
2023-02-28T07:29:00.896Z,102605.19
2023-02-28T07:31:31.552Z,102575.66
2023-02-28T07:34:01.707Z,102604.00
2023-02-28T07:36:31.707Z,102605.66
2023-02-28T07:39:02.677Z,102608.53
2023-02-28T07:41:38.729Z,102604.06
2023-02-28T07:44:09.058Z,102601.03
2023-02-28T07:46:39.145Z,102608.81
2023-02-28T07:49:10.535Z,102584.97
2023-02-28T07:51:40.641Z,102603.81
2023-02-28T07:54:14.823Z,102605.84
2023-02-28T07:56:47.528Z,102610.41
2023-02-28T07:59:17.564Z,102559.19
2023-02-28T08:01:47.879Z,102600.69
2023-02-28T08:04:18.146Z,102600.38
2023-02-28T08:06:49.776Z,102591.47
2023-02-28T08:09:22.409Z,102596.09
2023-02-28T08:11:55.298Z,102570.00
2023-02-28T08:14:25.635Z,102571.97
2023-02-28T08:16:55.872Z,102582.88
2023-02-28T08:19:26.263Z,102591.38
2023-02-28T08:21:56.308Z,102601.13
2023-02-28T08:24:27.086Z,102596.66
2023-02-28T08:26:59.795Z,102594.09
2023-02-28T08:29:31.284Z,102596.91
2023-02-28T08:32:01.521Z,102598.53
2023-02-28T08:34:31.710Z,102603.81
2023-02-28T08:37:01.644Z,102596.19
2023-02-28T08:39:31.732Z,102586.69
2023-02-28T08:42:08.224Z,102603.38
2023-02-28T08:44:38.560Z,102606.47
2023-02-28T08:47:08.786Z,102606.31
2023-02-28T08:49:38.963Z,102606.44
2023-02-28T08:52:12.004Z,102598.59
2023-02-28T08:54:42.054Z,102561.22
2023-02-28T08:57:14.669Z,102600.41
2023-02-28T08:59:44.767Z,102600.50
2023-02-28T09:02:17.191Z,102604.69
2023-02-28T09:04:48.272Z,102611.53
2023-02-28T09:07:18.309Z,102613.88
2023-02-28T09:09:58.752Z,102589.72
2023-02-28T09:12:36.398Z,102611.78
2023-02-28T09:15:07.526Z,102567.16
2023-02-28T09:17:37.903Z,102588.53
2023-02-28T09:20:09.545Z,102573.88
2023-02-28T09:22:39.809Z,102594.97
2023-02-28T09:25:10.749Z,102610.19
2023-02-28T09:27:43.460Z,102598.69
2023-02-28T09:30:15.262Z,102575.06
2023-02-28T09:32:53.180Z,102607.34
2023-02-28T09:35:23.551Z,102604.50
2023-02-28T09:37:55.384Z,102609.66
2023-02-28T09:40:27.541Z,102613.22
2023-02-28T09:43:03.629Z,102609.59
2023-02-28T09:45:37.702Z,102609.91
2023-02-28T09:48:13.705Z,102609.72
2023-02-28T09:50:46.394Z,102603.63
2023-02-28T09:53:24.173Z,102601.84
2023-02-28T09:55:58.620Z,102580.28
2023-02-28T09:58:41.109Z,102609.78
2023-02-28T10:01:16.855Z,102608.66
2023-02-28T10:03:53.227Z,102609.81
2023-02-28T10:06:26.652Z,102598.50
2023-02-28T10:09:04.775Z,102604.66
2023-02-28T10:11:38.087Z,102610.56
2023-02-28T10:14:17.023Z,102602.22
2023-02-28T10:16:53.124Z,102601.75
2023-02-28T10:19:27.848Z,102604.03
2023-02-28T10:22:01.724Z,102604.50
2023-02-28T10:24:36.356Z,102599.03
2023-02-28T10:27:18.321Z,102600.41
2023-02-28T10:29:56.093Z,102601.75
2023-02-28T10:32:29.408Z,102593.41
2023-02-28T10:35:03.405Z,102592.97
2023-02-28T10:37:39.114Z,102595.88
2023-02-28T10:40:11.128Z,102581.38
2023-02-28T10:42:42.138Z,102577.78
2023-02-28T10:45:19.908Z,102590.47
2023-02-28T10:47:57.150Z,102592.72
2023-02-28T10:50:39.152Z,102592.94
2023-02-28T10:53:20.391Z,102587.72
2023-02-28T10:56:01.943Z,102598.34
2023-02-28T10:58:34.000Z,102586.81
2023-02-28T11:01:07.067Z,102590.91
2023-02-28T11:03:39.190Z,102575.47
2023-02-28T11:06:12.090Z,102590.91
2023-02-28T11:08:49.659Z,102589.06
2023-02-28T11:11:21.008Z,102575.22
2023-02-28T11:13:54.577Z,102585.41
2023-02-28T11:16:37.066Z,102560.47
2023-02-28T11:19:08.360Z,102577.66
2023-02-28T11:21:41.833Z,102570.34
2023-02-28T11:24:26.289Z,102549.69
2023-02-28T11:26:56.756Z,102572.75
2023-02-28T11:29:29.582Z,102571.13
2023-02-28T11:32:17.302Z,102564.50
2023-02-28T11:34:48.377Z,102560.41
2023-02-28T11:37:25.798Z,102559.72
2023-02-28T11:39:55.892Z,102554.75
2023-02-28T11:42:48.123Z,102559.06
2023-02-28T11:45:48.937Z,102554.75
2023-02-28T11:48:26.973Z,102552.03
2023-02-28T11:51:09.308Z,102556.56
2023-02-28T11:53:59.279Z,102560.69
2023-02-28T11:56:35.415Z,102543.47
2023-02-28T11:59:30.854Z,102555.44
2023-02-28T12:02:27.626Z,102543.88
2023-02-28T12:05:15.300Z,102540.59
2023-02-28T12:07:54.878Z,102544.59
2023-02-28T12:10:29.063Z,102531.84
2023-02-28T12:13:22.699Z,102543.09
2023-02-28T12:16:04.302Z,102508.13
2023-02-28T12:18:57.352Z,102525.09
2023-02-28T12:21:40.773Z,102528.63
2023-02-28T12:24:35.124Z,102532.06
2023-02-28T12:27:09.543Z,102519.34
2023-02-28T12:29:47.026Z,102532.03
2023-02-28T12:32:21.547Z,102521.69
2023-02-28T12:34:55.874Z,102524.84
2023-02-28T12:37:32.534Z,102520.75
2023-02-28T12:40:07.699Z,102526.19
2023-02-28T12:42:43.305Z,102520.84
2023-02-28T12:45:21.863Z,102518.22
2023-02-28T12:48:01.977Z,102512.34
2023-02-28T12:50:34.536Z,102510.06
2023-02-28T12:53:15.437Z,102507.13
2023-02-28T12:55:55.095Z,102502.63
2023-02-28T12:58:37.049Z,102501.50
2023-02-28T13:01:38.644Z,102502.38
2023-02-28T13:04:47.499Z,102484.88
2023-02-28T13:07:45.925Z,102478.94
2023-02-28T13:10:21.520Z,102472.88
2023-02-28T13:12:54.701Z,102466.06
2023-02-28T13:15:30.778Z,102461.09
2023-02-28T13:18:04.484Z,102468.78
2023-02-28T13:20:39.377Z,102410.19
2023-02-28T13:23:45.723Z,102463.38
2023-02-28T13:26:20.067Z,102460.19
2023-02-28T13:29:35.198Z,102459.94
2023-02-28T13:32:39.254Z,102462.88
2023-02-28T13:35:43.756Z,102461.50
2023-02-28T13:38:38.743Z,102460.75
2023-02-28T13:41:42.834Z,102461.72
2023-02-28T13:44:19.232Z,102455.19
2023-02-28T13:47:20.036Z,102454.53
2023-02-28T13:49:51.901Z,102449.03
2023-02-28T13:52:27.301Z,102446.78
2023-02-28T13:55:31.826Z,102446.50
2023-02-28T13:58:27.708Z,102441.56
2023-02-28T14:01:25.183Z,102439.94
2023-02-28T14:04:15.045Z,102415.25
2023-02-28T14:06:53.684Z,102443.78
2023-02-28T14:09:30.854Z,102435.41
2023-02-28T14:12:22.846Z,102448.34
2023-02-28T14:15:01.419Z,102447.91
2023-02-28T14:17:36.447Z,102443.13
2023-02-28T14:20:09.034Z,102441.31
2023-02-28T14:22:59.874Z,102427.03
2023-02-28T14:25:41.557Z,102431.97
2023-02-28T14:28:21.913Z,102428.78
2023-02-28T14:31:11.087Z,102435.06
2023-02-28T14:34:07.358Z,102441.25
2023-02-28T14:36:41.637Z,102403.91
2023-02-28T14:39:17.342Z,102437.63
2023-02-28T14:41:48.920Z,102438.25
2023-02-28T14:44:22.611Z,102442.34
2023-02-28T14:46:56.628Z,102435.06
2023-02-28T14:49:31.307Z,102444.13
2023-02-28T14:52:13.002Z,102430.97
2023-02-28T14:54:44.552Z,102432.56
2023-02-28T14:57:26.759Z,102428.72
2023-02-28T15:00:12.708Z,102436.56
2023-02-28T15:02:43.567Z,102430.53
2023-02-28T15:05:34.350Z,102430.53
2023-02-28T15:08:10.489Z,102419.19
2023-02-28T15:10:41.324Z,102431.13
2023-02-28T15:13:17.051Z,102433.78
2023-02-28T15:16:01.944Z,102402.13
2023-02-28T15:18:42.441Z,102435.38
2023-02-28T15:21:18.803Z,102431.78
2023-02-28T15:23:54.801Z,102413.06
2023-02-28T15:26:30.198Z,102423.25
2023-02-28T15:29:04.701Z,102430.06
2023-02-28T15:31:55.337Z,102423.28
2023-02-28T15:34:42.228Z,102430.59
2023-02-28T15:37:34.962Z,102426.06
2023-02-28T15:40:17.703Z,102426.53
2023-02-28T15:43:03.822Z,102420.19
2023-02-28T15:45:42.560Z,102430.16
2023-02-28T15:48:23.993Z,102394.00
2023-02-28T15:51:00.227Z,102429.78
2023-02-28T15:53:38.122Z,102427.97
2023-02-28T15:56:19.634Z,102427.13
2023-02-28T15:58:54.815Z,102421.69
2023-02-28T16:01:31.556Z,102434.38
2023-02-28T16:04:06.300Z,102410.41
2023-02-28T16:06:44.452Z,102431.69
2023-02-28T16:09:21.711Z,102422.41
2023-02-28T16:11:55.435Z,102423.56
2023-02-28T16:14:28.909Z,102434.91
2023-02-28T16:17:06.884Z,102438.09
2023-02-28T16:19:38.774Z,102429.94
2023-02-28T16:22:10.246Z,102436.78
2023-02-28T16:24:44.713Z,102439.00
2023-02-28T16:27:23.248Z,102435.19
2023-02-28T16:29:55.864Z,102436.53
2023-02-28T16:32:28.101Z,102434.06
2023-02-28T16:34:59.681Z,102428.19
2023-02-28T16:37:32.874Z,102444.75
2023-02-28T16:40:07.760Z,102448.59
2023-02-28T16:42:42.190Z,102450.41
2023-02-28T16:45:22.027Z,102434.13
2023-02-28T16:47:53.570Z,102440.44
2023-02-28T16:50:27.260Z,102440.00
2023-02-28T16:52:59.613Z,102439.31
2023-02-28T16:55:34.185Z,102442.97
2023-02-28T16:58:07.461Z,102442.50
2023-02-28T17:00:40.315Z,102440.00
2023-02-28T17:03:30.780Z,102425.75
2023-02-28T17:06:04.676Z,102447.69
2023-02-28T17:08:40.071Z,102450.66
2023-02-28T17:11:14.661Z,102453.13
2023-02-28T17:13:46.606Z,102457.88
2023-02-28T17:16:25.117Z,102430.03
2023-02-28T17:18:58.252Z,102431.41
2023-02-28T17:21:29.932Z,102461.94
2023-02-28T17:24:01.706Z,102465.34
2023-02-28T17:26:36.167Z,102449.25
2023-02-28T17:29:11.221Z,102470.53
2023-02-28T17:31:43.049Z,102475.28
2023-02-28T17:34:19.585Z,102479.34
2023-02-28T17:36:53.466Z,102442.66
2023-02-28T17:39:25.675Z,102483.66
2023-02-28T17:42:00.621Z,102478.44
2023-02-28T17:44:32.137Z,102482.53
2023-02-28T17:47:04.477Z,102482.53
2023-02-28T17:49:35.972Z,102480.03
2023-02-28T17:52:07.941Z,102490.22
2023-02-28T17:54:39.855Z,102490.22
2023-02-28T17:57:23.131Z,102488.38
2023-02-28T17:59:58.158Z,102463.22
2023-02-28T18:02:30.485Z,102488.38
2023-02-28T18:05:01.971Z,102488.84
2023-02-28T18:07:34.964Z,102496.53
2023-02-28T18:10:06.397Z,102489.94
2023-02-28T18:12:39.469Z,102490.84
2023-02-28T18:15:11.869Z,102494.44
2023-02-28T18:17:43.185Z,102499.19
2023-02-28T18:20:15.929Z,102501.19
2023-02-28T18:22:49.211Z,102497.56
2023-02-28T18:25:23.631Z,102490.09
2023-02-28T18:27:58.917Z,102508.41
2023-02-28T18:30:35.344Z,102511.34
2023-02-28T18:33:07.690Z,102485.69
2023-02-28T18:35:39.966Z,102497.94
2023-02-28T18:38:15.296Z,102511.28
2023-02-28T18:40:55.030Z,102488.63
2023-02-28T18:43:29.481Z,102502.66
2023-02-28T18:46:01.327Z,102491.53
2023-02-28T18:48:35.686Z,102500.38
2023-02-28T18:51:11.831Z,102491.97
2023-02-28T18:53:46.297Z,102489.22
2023-02-28T18:56:18.713Z,102493.97
2023-02-28T18:58:53.670Z,102497.13
2023-02-28T19:01:31.368Z,102495.75
2023-02-28T19:04:04.526Z,102497.28
2023-02-28T19:06:38.665Z,102488.66
2023-02-28T19:09:10.909Z,102485.25
2023-02-28T19:11:43.515Z,102484.75
2023-02-28T19:14:16.756Z,102494.25
2023-02-28T19:16:48.944Z,102486.56
2023-02-28T19:19:21.546Z,102493.06
2023-02-28T19:21:55.402Z,102487.38
2023-02-28T19:24:27.532Z,102481.66
2023-02-28T19:26:58.769Z,102483.69
2023-02-28T19:29:31.617Z,102490.41
2023-02-28T19:32:01.868Z,102485.44
2023-02-28T19:34:32.091Z,102477.53
2023-02-28T19:37:02.103Z,102490.88
2023-02-28T19:39:41.150Z,102490.16
2023-02-28T19:42:13.636Z,102485.88
2023-02-28T19:44:48.488Z,102484.91
2023-02-28T19:47:25.653Z,102486.69
2023-02-28T19:49:57.136Z,102486.88
2023-02-28T19:52:28.859Z,102487.13
2023-02-28T19:55:00.770Z,102468.03
2023-02-28T19:57:32.375Z,102497.94
2023-02-28T20:00:07.208Z,102505.16
2023-02-28T20:02:44.154Z,102500.81
2023-02-28T20:05:14.878Z,102506.84
2023-02-28T20:07:46.359Z,102506.38
2023-02-28T20:10:18.031Z,102516.97
2023-02-28T20:12:49.437Z,102516.31
2023-02-28T20:15:23.668Z,102518.06
2023-02-28T20:17:57.841Z,102507.91
2023-02-28T20:20:30.080Z,102516.69
2023-02-28T20:23:02.024Z,102517.34
2023-02-28T20:25:32.979Z,102517.59
2023-02-28T20:28:03.277Z,102521.63
2023-02-28T20:30:38.161Z,102520.50
2023-02-28T20:33:10.473Z,102513.91
2023-02-28T20:35:41.856Z,102512.53
2023-02-28T20:38:13.665Z,102513.16
2023-02-28T20:40:44.089Z,102523.31
2023-02-28T20:43:14.270Z,102516.09
2023-02-28T20:45:54.975Z,102516.75
2023-02-28T20:48:25.671Z,102514.03
2023-02-28T20:50:59.090Z,102518.25
2023-02-28T20:53:32.048Z,102513.06
2023-02-28T20:56:04.216Z,102504.69
2023-02-28T20:58:37.302Z,102511.97
2023-02-28T21:01:16.172Z,102508.38
2023-02-28T21:03:46.645Z,102505.25
2023-02-28T21:06:17.569Z,102508.66
2023-02-28T21:08:48.207Z,102486.56
2023-02-28T21:11:20.428Z,102510.16
2023-02-28T21:13:51.507Z,102514.78
2023-02-28T21:16:26.202Z,102522.19
2023-02-28T21:18:56.191Z,102514.84
2023-02-28T21:21:27.722Z,102518.31
2023-02-28T21:23:57.674Z,102519.75
2023-02-28T21:26:28.633Z,102519.09
2023-02-28T21:29:00.712Z,102513.16
2023-02-28T21:31:35.891Z,102520.31
2023-02-28T21:34:08.426Z,102519.50
2023-02-28T21:36:41.061Z,102534.72
2023-02-28T21:39:13.291Z,102516.59
2023-02-28T21:41:43.621Z,102523.88
2023-02-28T21:44:18.952Z,102529.47
2023-02-28T21:46:57.086Z,102520.88
2023-02-28T21:49:27.308Z,102507.09
2023-02-28T21:51:57.294Z,102510.53
2023-02-28T21:54:27.666Z,102522.72
2023-02-28T21:56:59.814Z,102524.69
2023-02-28T21:59:30.458Z,102521.66
2023-02-28T22:02:05.570Z,102525.53
2023-02-28T22:04:36.278Z,102514.97
2023-02-28T22:07:07.620Z,102516.13
2023-02-28T22:09:37.571Z,102519.84
2023-02-28T22:12:08.628Z,102504.75
2023-02-28T22:14:39.834Z,102493.53
2023-02-28T22:17:12.519Z,102521.41
2023-02-28T22:19:43.153Z,102510.84
2023-02-28T22:22:13.444Z,102512.19
2023-02-28T22:24:43.695Z,102505.31
2023-02-28T22:27:13.816Z,102499.41
2023-02-28T22:29:44.098Z,102506.38
2023-02-28T22:32:16.920Z,102504.16
2023-02-28T22:34:47.508Z,102489.38
2023-02-28T22:37:17.790Z,102509.38
2023-02-28T22:39:47.884Z,102502.75
2023-02-28T22:42:17.968Z,102502.09
2023-02-28T22:44:48.984Z,102514.72
2023-02-28T22:47:22.594Z,102514.97
2023-02-28T22:49:52.762Z,102511.50
2023-02-28T22:52:22.785Z,102515.31
2023-02-28T22:54:53.960Z,102511.41
2023-02-28T22:57:24.311Z,102508.63
2023-02-28T22:59:54.250Z,102522.72
2023-02-28T23:02:27.120Z,102513.25
2023-02-28T23:04:57.975Z,102472.84
2023-02-28T23:07:28.162Z,102508.78
2023-02-28T23:09:58.272Z,102514.50
2023-02-28T23:12:28.336Z,102508.63
2023-02-28T23:14:58.258Z,102499.56
2023-02-28T23:17:31.030Z,102504.59
2023-02-28T23:20:01.591Z,102516.81
2023-02-28T23:22:31.709Z,102515.56
2023-02-28T23:25:01.929Z,102514.63
2023-02-28T23:27:32.290Z,102518.88
2023-02-28T23:30:03.062Z,102523.44
2023-02-28T23:32:35.951Z,102525.66
2023-02-28T23:35:07.152Z,102521.22
2023-02-28T23:37:37.660Z,102532.44
2023-02-28T23:40:10.930Z,102524.13
2023-02-28T23:42:40.948Z,102526.28
2023-02-28T23:45:12.545Z,102509.94
2023-02-28T23:47:45.337Z,102523.59
2023-02-28T23:50:15.639Z,102506.50
2023-02-28T23:52:45.638Z,102527.78
2023-02-28T23:55:15.664Z,102494.56
2023-02-28T23:57:45.894Z,102518.56
